createdAt,value
2023-04-21T00:00:00.508Z,60.83
2023-04-21T00:05:04.076Z,60.78
2023-04-21T00:10:10.992Z,60.80
2023-04-21T00:15:14.128Z,61.38
2023-04-21T00:20:17.103Z,61.67
2023-04-21T00:25:20.102Z,61.79
2023-04-21T00:30:23.710Z,61.71
2023-04-21T00:35:27.007Z,61.88
2023-04-21T00:40:30.860Z,62.28
2023-04-21T00:45:34.045Z,62.48
2023-04-21T00:50:37.282Z,62.72
2023-04-21T00:55:42.824Z,62.88
2023-04-21T01:00:45.856Z,62.41
2023-04-21T01:05:49.011Z,62.54
2023-04-21T01:10:52.023Z,62.62
2023-04-21T01:15:55.681Z,62.62
2023-04-21T01:20:59.866Z,62.33
2023-04-21T01:26:04.185Z,62.23
2023-04-21T01:31:07.287Z,62.41
2023-04-21T01:36:10.847Z,62.96
2023-04-21T01:41:13.897Z,63.24
2023-04-21T01:46:20.818Z,63.16
2023-04-21T01:51:23.959Z,63.54
2023-04-21T01:56:27.216Z,63.76
2023-04-21T02:01:30.788Z,63.85
2023-04-21T02:06:33.854Z,63.67
2023-04-21T02:11:36.924Z,63.90
2023-04-21T02:16:39.983Z,63.84
2023-04-21T02:21:43.017Z,63.80
2023-04-21T02:26:46.078Z,63.57
2023-04-21T02:32:00.764Z,62.98
2023-04-21T02:37:10.831Z,62.76
2023-04-21T02:42:13.854Z,62.30
2023-04-21T02:47:17.096Z,61.60
2023-04-21T02:52:20.104Z,61.90
2023-04-21T02:57:23.176Z,61.97
2023-04-21T03:02:26.622Z,61.75
2023-04-21T03:07:30.252Z,61.52
2023-04-21T03:12:33.653Z,61.45
2023-04-21T03:17:37.270Z,61.58
2023-04-21T03:22:40.479Z,61.24
2023-04-21T03:27:43.620Z,61.15
2023-04-21T03:32:47.293Z,61.48
2023-04-21T03:37:50.323Z,61.69
2023-04-21T03:42:53.437Z,61.98
2023-04-21T03:47:57.106Z,62.08
2023-04-21T03:53:00.150Z,62.38
2023-04-21T03:58:03.266Z,62.77
2023-04-21T04:03:07.655Z,62.68
2023-04-21T04:08:10.789Z,62.70
2023-04-21T04:13:13.858Z,62.53
2023-04-21T04:18:16.868Z,62.47
2023-04-21T04:23:19.896Z,62.90
2023-04-21T04:28:23.365Z,63.39
2023-04-21T04:33:27.047Z,63.31
2023-04-21T04:38:30.459Z,63.35
2023-04-21T04:43:39.542Z,62.63
2023-04-21T04:48:42.659Z,61.52
2023-04-21T04:53:45.673Z,60.84
2023-04-21T04:58:48.618Z,59.39
2023-04-21T05:03:51.855Z,59.76
2023-04-21T05:08:55.272Z,60.25
2023-04-21T05:13:58.724Z,60.49
2023-04-21T05:19:02.810Z,60.14
2023-04-21T05:24:05.987Z,60.10
2023-04-21T05:29:09.517Z,59.67
2023-04-21T05:34:12.602Z,59.05
2023-04-21T05:39:21.633Z,58.53
2023-04-21T05:44:27.219Z,58.22
2023-04-21T05:49:30.336Z,57.85
2023-04-21T05:54:33.366Z,56.97
2023-04-21T05:59:36.329Z,56.43
2023-04-21T06:04:39.439Z,56.57
2023-04-21T06:09:42.561Z,56.53
2023-04-21T06:14:45.513Z,56.20
2023-04-21T06:21:06.229Z,55.98
2023-04-21T06:26:10.372Z,56.44
2023-04-21T06:31:16.172Z,55.75
2023-04-21T06:36:19.628Z,55.70
2023-04-21T06:41:24.882Z,55.55
2023-04-21T06:46:28.072Z,55.08
2023-04-21T06:51:32.315Z,55.43
2023-04-21T06:56:36.187Z,55.00
2023-04-21T07:01:39.921Z,54.58
2023-04-21T07:06:43.713Z,54.38
2023-04-21T07:11:46.654Z,53.86
2023-04-21T07:16:49.634Z,53.86
2023-04-21T07:21:52.615Z,53.65
2023-04-21T07:26:56.596Z,53.41
2023-04-21T07:31:59.641Z,52.83
2023-04-21T07:37:02.618Z,52.92
2023-04-21T07:42:08.331Z,52.59
2023-04-21T07:47:11.968Z,51.73
2023-04-21T07:52:15.025Z,51.14
2023-04-21T07:57:18.175Z,50.67
2023-04-21T08:02:21.297Z,51.01
2023-04-21T08:07:24.396Z,50.90
2023-04-21T08:12:27.529Z,50.71
2023-04-21T08:17:30.679Z,50.57
2023-04-21T08:22:33.816Z,50.57
2023-04-21T08:27:40.208Z,50.01
2023-04-21T08:32:46.257Z,50.22
2023-04-21T08:37:50.976Z,49.90
2023-04-21T08:42:54.655Z,49.86
2023-04-21T08:47:59.673Z,49.89
2023-04-21T08:53:03.785Z,49.49
2023-04-21T08:58:07.142Z,49.22
2023-04-21T09:03:19.354Z,48.68
2023-04-21T09:08:30.592Z,48.36
2023-04-21T09:13:36.062Z,48.44
2023-04-21T09:18:40.499Z,46.75
2023-04-21T09:23:47.895Z,45.93
2023-04-21T09:28:52.679Z,45.16
2023-04-21T09:34:00.350Z,44.09
2023-04-21T09:44:12.181Z,40.82
2023-04-21T09:49:17.733Z,41.40
2023-04-21T09:59:37.114Z,41.57
2023-04-21T10:04:43.216Z,43.25
2023-04-21T10:09:51.111Z,42.90
2023-04-21T10:14:57.296Z,41.88
2023-04-21T10:20:00.429Z,41.88
2023-04-21T10:25:08.514Z,41.68
2023-04-21T10:30:22.990Z,40.76
2023-04-21T10:35:26.268Z,38.86
2023-04-21T10:40:44.330Z,38.73
2023-04-21T10:45:47.684Z,40.79
2023-04-21T10:50:50.735Z,41.87
2023-04-21T10:55:54.151Z,39.49
2023-04-21T11:00:57.635Z,38.76
2023-04-21T11:06:00.707Z,39.98
2023-04-21T11:11:03.988Z,39.53
2023-04-21T11:16:07.543Z,38.64
2023-04-21T11:21:12.087Z,37.50
2023-04-21T11:26:15.594Z,37.64
2023-04-21T11:31:18.739Z,36.47
2023-04-21T11:36:22.796Z,36.97
2023-04-21T11:41:26.001Z,36.70
2023-04-21T11:46:29.382Z,36.11
2023-04-21T11:51:43.801Z,35.49
2023-04-21T11:56:47.939Z,34.35
2023-04-21T12:01:53.797Z,33.31
2023-04-21T12:06:59.405Z,32.27
2023-04-21T12:12:05.485Z,31.46
2023-04-21T12:17:08.440Z,30.64
2023-04-21T12:22:18.342Z,31.27
2023-04-21T12:27:21.650Z,31.13
2023-04-21T12:32:24.635Z,31.10
2023-04-21T12:37:27.700Z,30.02
2023-04-21T12:42:31.312Z,30.73
2023-04-21T12:47:37.170Z,30.83
2023-04-21T12:52:40.422Z,33.76
2023-04-21T12:57:44.328Z,31.38
2023-04-21T13:02:47.759Z,31.02
2023-04-21T13:07:51.094Z,30.69
2023-04-21T13:12:54.389Z,30.07
2023-04-21T13:17:58.512Z,29.12
2023-04-21T13:23:01.816Z,28.87
2023-04-21T13:28:05.043Z,28.66
2023-04-21T13:33:08.281Z,27.93
2023-04-21T13:38:12.387Z,27.13
2023-04-21T13:43:15.639Z,26.55
2023-04-21T13:48:23.713Z,26.07
2023-04-21T13:53:27.031Z,26.11
2023-04-21T13:58:30.974Z,26.32
2023-04-21T14:03:34.157Z,26.67
2023-04-21T14:08:37.358Z,26.40
2023-04-21T14:13:49.198Z,25.99
2023-04-21T14:19:06.637Z,25.63
2023-04-21T14:24:10.180Z,24.77
2023-04-21T14:29:13.516Z,24.69
2023-04-21T14:34:16.479Z,24.60
2023-04-21T14:39:20.061Z,24.88
2023-04-21T14:44:23.191Z,25.14
2023-04-21T14:49:28.881Z,25.36
2023-04-21T14:54:31.965Z,26.06
2023-04-21T14:59:35.511Z,26.46
2023-04-21T15:04:39.010Z,26.39
2023-04-21T15:09:45.838Z,26.59
2023-04-21T15:14:49.044Z,26.86
2023-04-21T15:19:52.102Z,26.70
2023-04-21T15:24:55.405Z,27.08
2023-04-21T15:29:58.915Z,27.78
2023-04-21T15:35:02.414Z,27.94
2023-04-21T15:40:06.259Z,29.28
2023-04-21T15:45:10.068Z,29.12
2023-04-21T15:50:13.134Z,29.19
2023-04-21T15:55:27.382Z,29.17
2023-04-21T16:00:30.685Z,28.40
2023-04-21T16:05:34.072Z,25.97
2023-04-21T16:10:40.049Z,24.93
2023-04-21T16:15:46.924Z,25.64
2023-04-21T16:20:50.145Z,25.38
2023-04-21T16:25:53.710Z,25.39
2023-04-21T16:30:56.738Z,25.45
2023-04-21T16:35:59.743Z,26.29
2023-04-21T16:41:03.813Z,27.29
2023-04-21T16:46:06.856Z,28.10
2023-04-21T16:51:12.512Z,28.35
2023-04-21T16:56:16.866Z,28.62
2023-04-21T17:01:19.924Z,29.57
2023-04-21T17:06:23.010Z,30.95
2023-04-21T17:11:28.088Z,30.80
2023-04-21T17:16:31.459Z,30.54
2023-04-21T17:21:34.485Z,30.55
2023-04-21T17:26:37.651Z,30.28
2023-04-21T17:31:41.427Z,30.78
2023-04-21T17:36:45.018Z,30.76
2023-04-21T17:41:48.632Z,31.93
2023-04-21T17:46:52.417Z,33.27
2023-04-21T17:51:55.524Z,34.65
2023-04-21T17:56:58.667Z,34.13
2023-04-21T18:02:01.984Z,34.81
2023-04-21T18:07:05.174Z,34.87
2023-04-21T18:12:08.202Z,35.41
2023-04-21T18:17:11.756Z,34.83
2023-04-21T18:22:15.031Z,34.99
2023-04-21T18:27:18.052Z,35.52
2023-04-21T18:32:21.547Z,35.79
2023-04-21T18:37:24.614Z,36.68
2023-04-21T18:42:28.579Z,37.17
2023-04-21T18:47:31.841Z,37.82
2023-04-21T18:52:34.953Z,37.90
2023-04-21T18:57:37.900Z,38.11
2023-04-21T19:02:41.229Z,39.15
2023-04-21T19:07:44.836Z,39.42
2023-04-21T19:12:48.156Z,40.01
2023-04-21T19:17:52.683Z,40.72
2023-04-21T19:22:55.824Z,41.26
2023-04-21T19:27:59.080Z,42.33
2023-04-21T19:33:02.564Z,42.91
2023-04-21T19:38:07.116Z,43.56
2023-04-21T19:43:10.341Z,43.79
2023-04-21T19:48:14.568Z,44.37
2023-04-21T19:53:18.616Z,44.89
2023-04-21T19:58:36.214Z,45.46
2023-04-21T20:03:42.672Z,45.73
2023-04-21T20:08:45.830Z,46.07
2023-04-21T20:13:49.161Z,46.69
2023-04-21T20:18:53.017Z,47.63
2023-04-21T20:29:34.038Z,48.58
2023-04-21T20:34:37.088Z,48.77
2023-04-21T20:39:41.528Z,49.32
2023-04-21T20:44:45.166Z,49.74
2023-04-21T20:49:48.438Z,49.91
2023-04-21T20:54:51.673Z,50.46
2023-04-21T20:59:54.955Z,50.77
2023-04-21T21:04:58.097Z,51.17
2023-04-21T21:10:01.200Z,51.46
2023-04-21T21:15:05.530Z,51.70
2023-04-21T21:20:09.139Z,51.95
2023-04-21T21:25:12.448Z,52.32
2023-04-21T21:30:15.863Z,52.41
2023-04-21T21:35:18.973Z,52.53
2023-04-21T21:40:22.277Z,52.62
2023-04-21T21:45:25.332Z,52.99
2023-04-21T21:50:28.388Z,53.19
2023-04-21T21:55:31.420Z,53.57
2023-04-21T22:00:34.831Z,53.75
2023-04-21T22:05:39.115Z,53.68
2023-04-21T22:10:43.268Z,53.80
2023-04-21T22:15:46.362Z,54.12
2023-04-21T22:20:49.490Z,54.55
2023-04-21T22:25:52.724Z,54.66
2023-04-21T22:30:56.379Z,54.94
2023-04-21T22:35:59.474Z,54.76
2023-04-21T22:41:02.620Z,54.71
2023-04-21T22:47:28.562Z,55.17
2023-04-21T22:52:31.672Z,55.29
2023-04-21T22:57:37.445Z,55.59
2023-04-21T23:02:40.484Z,55.56
2023-04-21T23:07:43.954Z,55.63
2023-04-21T23:12:47.131Z,56.02
2023-04-21T23:17:50.547Z,56.23
2023-04-21T23:22:54.027Z,56.49
2023-04-21T23:27:57.097Z,56.34
2023-04-21T23:33:00.472Z,56.65
2023-04-21T23:38:04.105Z,56.66
2023-04-21T23:43:07.617Z,56.65
2023-04-21T23:48:11.793Z,57.05
